createdAt,value
2022-09-15T06:14:37.349Z,996.85
2022-09-15T06:24:37.388Z,996.86
2022-09-15T06:34:37.359Z,996.96
2022-09-15T06:44:37.138Z,997.03
2022-09-15T06:54:37.289Z,997.15
2022-09-15T07:04:37.241Z,997.25
2022-09-15T07:14:37.199Z,997.37
2022-09-15T07:24:37.272Z,997.34
2022-09-15T07:34:37.301Z,997.48
2022-09-15T07:44:37.361Z,997.67
2022-09-15T07:54:37.319Z,997.89
2022-09-15T08:04:37.274Z,998.06
2022-09-15T08:14:37.500Z,998.03
2022-09-15T08:24:37.293Z,998.14
2022-09-15T08:34:37.490Z,998.27
2022-09-15T08:44:37.626Z,998.22
2022-09-15T08:54:37.740Z,998.32
2022-09-15T09:04:37.777Z,998.24
2022-09-15T09:14:37.687Z,998.19
2022-09-15T09:24:37.710Z,998.14
2022-09-15T09:34:37.729Z,998.15
2022-09-15T09:44:37.739Z,998.22
2022-09-15T09:54:37.653Z,998.22
2022-09-15T10:04:37.722Z,997.98
2022-09-15T10:14:37.729Z,998.05
2022-09-15T10:24:37.819Z,997.93
2022-09-15T10:34:37.675Z,997.86
2022-09-15T10:44:37.735Z,997.84
2022-09-15T10:54:37.782Z,997.86
2022-09-15T11:04:37.850Z,997.98
2022-09-15T11:14:37.991Z,998.05
2022-09-15T11:24:37.839Z,998.06
2022-09-15T11:34:37.827Z,997.85
2022-09-15T11:44:37.875Z,997.84
2022-09-15T11:54:37.863Z,998.09
2022-09-15T12:04:37.866Z,998.54
2022-09-15T12:14:37.807Z,998.39
2022-09-15T12:24:37.858Z,998.52
2022-09-15T12:34:37.984Z,998.44
2022-09-15T12:44:37.911Z,998.45
2022-09-15T12:54:37.979Z,998.33
2022-09-15T13:04:37.899Z,998.20
2022-09-15T13:14:38.137Z,998.24
2022-09-15T13:24:38.033Z,998.17
2022-09-15T13:35:13.834Z,998.19
2022-09-15T13:44:38.037Z,998.15
2022-09-15T13:54:37.917Z,998.06
2022-09-15T14:04:37.924Z,997.99
2022-09-15T14:14:37.979Z,997.97
2022-09-15T14:24:37.934Z,997.98
2022-09-15T14:34:38.072Z,997.85
2022-09-15T14:54:37.893Z,997.78
2022-09-15T15:04:37.987Z,997.79
2022-09-15T15:14:38.357Z,997.79
2022-09-15T15:24:37.935Z,997.91
2022-09-15T15:34:38.088Z,997.93
2022-09-15T15:44:38.023Z,998.04
2022-09-15T15:54:38.116Z,998.46
2022-09-15T16:04:38.074Z,998.63
2022-09-15T16:14:38.085Z,998.57
2022-09-15T16:24:38.088Z,998.64
2022-09-15T16:34:38.053Z,998.48
2022-09-15T16:44:38.165Z,998.52
2022-09-15T16:54:38.005Z,998.49
2022-09-15T17:04:38.129Z,998.44
2022-09-15T17:14:38.034Z,998.40
2022-09-15T17:24:38.258Z,998.47
2022-09-15T17:34:38.141Z,998.55
2022-09-15T17:44:38.107Z,998.62
2022-09-15T17:54:38.199Z,998.84
2022-09-15T18:04:38.255Z,998.84
2022-09-15T18:14:38.278Z,998.84
2022-09-15T18:24:38.171Z,998.78
2022-09-15T18:34:38.274Z,998.82
2022-09-15T18:44:38.206Z,998.97
2022-09-15T18:54:38.334Z,998.97
2022-09-15T19:04:40.625Z,999.12
2022-09-15T19:14:38.507Z,999.18
